sensor_id;sensor_type;location;lat;lon;timestamp;P1;durP1;ratioP1;P2;durP2;ratioP2
69989;SDS011;57331;52.054;5.294;2022-08-19T00:01:47;7.70;;;4.45;;
69989;SDS011;57331;52.054;5.294;2022-08-19T00:04:20;10.63;;;4.72;;
69989;SDS011;57331;52.054;5.294;2022-08-19T00:06:49;8.15;;;4.20;;
69989;SDS011;57331;52.054;5.294;2022-08-19T00:09:16;7.43;;;4.37;;
69989;SDS011;57331;52.054;5.294;2022-08-19T00:11:45;10.38;;;4.93;;
69989;SDS011;57331;52.054;5.294;2022-08-19T00:14:13;7.50;;;4.30;;
69989;SDS011;57331;52.054;5.294;2022-08-19T00:16:42;9.70;;;5.07;;
69989;SDS011;57331;52.054;5.294;2022-08-19T00:19:10;7.65;;;4.25;;
69989;SDS011;57331;52.054;5.294;2022-08-19T00:21:37;10.70;;;4.90;;
69989;SDS011;57331;52.054;5.294;2022-08-19T00:24:06;6.75;;;4.13;;
69989;SDS011;57331;52.054;5.294;2022-08-19T00:26:35;10.55;;;4.05;;
69989;SDS011;57331;52.054;5.294;2022-08-19T00:29:02;8.88;;;4.88;;
69989;SDS011;57331;52.054;5.294;2022-08-19T00:31:30;10.43;;;4.40;;
69989;SDS011;57331;52.054;5.294;2022-08-19T00:33:57;8.70;;;4.80;;
69989;SDS011;57331;52.054;5.294;2022-08-19T00:36:25;11.40;;;4.78;;
69989;SDS011;57331;52.054;5.294;2022-08-19T00:38:52;7.60;;;4.28;;
69989;SDS011;57331;52.054;5.294;2022-08-19T00:41:20;8.60;;;4.38;;
69989;SDS011;57331;52.054;5.294;2022-08-19T00:44:09;8.75;;;4.50;;
69989;SDS011;57331;52.054;5.294;2022-08-19T00:46:41;8.33;;;4.00;;
69989;SDS011;57331;52.054;5.294;2022-08-19T00:49:31;7.50;;;4.00;;
69989;SDS011;57331;52.054;5.294;2022-08-19T00:52:08;7.60;;;3.75;;
69989;SDS011;57331;52.054;5.294;2022-08-19T00:54:39;6.47;;;3.35;;
69989;SDS011;57331;52.054;5.294;2022-08-19T00:57:08;7.25;;;3.28;;
69989;SDS011;57331;52.054;5.294;2022-08-19T00:59:41;7.47;;;3.50;;
69989;SDS011;57331;52.054;5.294;2022-08-19T01:02:27;7.50;;;3.25;;
69989;SDS011;57331;52.054;5.294;2022-08-19T01:04:56;7.65;;;3.40;;
69989;SDS011;57331;52.054;5.294;2022-08-19T01:07:23;6.70;;;3.50;;
69989;SDS011;57331;52.054;5.294;2022-08-19T01:09:50;5.75;;;3.33;;
69989;SDS011;57331;52.054;5.294;2022-08-19T01:12:18;7.10;;;3.30;;
69989;SDS011;57331;52.054;5.294;2022-08-19T01:14:45;8.85;;;3.38;;
69989;SDS011;57331;52.054;5.294;2022-08-19T01:17:13;9.65;;;3.28;;
69989;SDS011;57331;52.054;5.294;2022-08-19T01:19:41;7.53;;;3.50;;
69989;SDS011;57331;52.054;5.294;2022-08-19T01:24:58;7.57;;;3.50;;
69989;SDS011;57331;52.054;5.294;2022-08-19T01:27:25;7.13;;;3.15;;
69989;SDS011;57331;52.054;5.294;2022-08-19T01:30:08;9.00;;;3.00;;
69989;SDS011;57331;52.054;5.294;2022-08-19T01:32:40;6.13;;;3.22;;
69989;SDS011;57331;52.054;5.294;2022-08-19T01:35:07;6.25;;;3.53;;
69989;SDS011;57331;52.054;5.294;2022-08-19T01:37:48;7.07;;;3.55;;
69989;SDS011;57331;52.054;5.294;2022-08-19T01:40:21;6.30;;;3.40;;
69989;SDS011;57331;52.054;5.294;2022-08-19T01:42:50;7.70;;;3.50;;
69989;SDS011;57331;52.054;5.294;2022-08-19T01:45:19;5.82;;;3.20;;
69989;SDS011;57331;52.054;5.294;2022-08-19T01:47:48;7.80;;;3.55;;
69989;SDS011;57331;52.054;5.294;2022-08-19T01:50:27;9.63;;;3.80;;
69989;SDS011;57331;52.054;5.294;2022-08-19T01:52:55;7.57;;;3.60;;
69989;SDS011;57331;52.054;5.294;2022-08-19T01:55:33;8.82;;;3.63;;
69989;SDS011;57331;52.054;5.294;2022-08-19T01:58:08;6.72;;;3.60;;
69989;SDS011;57331;52.054;5.294;2022-08-19T02:00:38;7.32;;;3.63;;
69989;SDS011;57331;52.054;5.294;2022-08-19T02:03:05;6.45;;;3.40;;
69989;SDS011;57331;52.054;5.294;2022-08-19T02:05:32;6.68;;;3.20;;
69989;SDS011;57331;52.054;5.294;2022-08-19T02:07:59;7.35;;;3.30;;
69989;SDS011;57331;52.054;5.294;2022-08-19T02:10:26;6.45;;;3.80;;
69989;SDS011;57331;52.054;5.294;2022-08-19T02:12:53;6.38;;;3.35;;
69989;SDS011;57331;52.054;5.294;2022-08-19T02:15:21;9.60;;;3.37;;
69989;SDS011;57331;52.054;5.294;2022-08-19T02:17:48;9.55;;;4.03;;
69989;SDS011;57331;52.054;5.294;2022-08-19T02:20:15;7.47;;;3.38;;
69989;SDS011;57331;52.054;5.294;2022-08-19T02:22:42;7.15;;;3.72;;
69989;SDS011;57331;52.054;5.294;2022-08-19T02:25:11;7.35;;;3.80;;
69989;SDS011;57331;52.054;5.294;2022-08-19T02:27:39;6.15;;;3.40;;
69989;SDS011;57331;52.054;5.294;2022-08-19T02:30:08;7.75;;;3.67;;
69989;SDS011;57331;52.054;5.294;2022-08-19T02:32:39;6.72;;;3.50;;
69989;SDS011;57331;52.054;5.294;2022-08-19T02:35:11;6.78;;;3.55;;
69989;SDS011;57331;52.054;5.294;2022-08-19T02:37:39;6.18;;;3.58;;
69989;SDS011;57331;52.054;5.294;2022-08-19T02:40:27;8.27;;;3.70;;
69989;SDS011;57331;52.054;5.294;2022-08-19T02:42:55;8.48;;;3.55;;
69989;SDS011;57331;52.054;5.294;2022-08-19T02:45:22;8.18;;;4.05;;
69989;SDS011;57331;52.054;5.294;2022-08-19T02:47:49;8.05;;;3.95;;
69989;SDS011;57331;52.054;5.294;2022-08-19T02:50:16;6.25;;;3.30;;
69989;SDS011;57331;52.054;5.294;2022-08-19T02:52:43;10.60;;;3.42;;
69989;SDS011;57331;52.054;5.294;2022-08-19T02:55:11;8.98;;;3.30;;
69989;SDS011;57331;52.054;5.294;2022-08-19T02:57:38;6.40;;;3.25;;
69989;SDS011;57331;52.054;5.294;2022-08-19T03:00:06;8.88;;;3.13;;
69989;SDS011;57331;52.054;5.294;2022-08-19T03:02:36;6.88;;;3.40;;
69989;SDS011;57331;52.054;5.294;2022-08-19T03:05:03;5.97;;;3.38;;
69989;SDS011;57331;52.054;5.294;2022-08-19T03:07:31;7.93;;;3.08;;
69989;SDS011;57331;52.054;5.294;2022-08-19T03:09:58;7.20;;;3.47;;
69989;SDS011;57331;52.054;5.294;2022-08-19T03:12:25;7.00;;;3.28;;
69989;SDS011;57331;52.054;5.294;2022-08-19T03:14:52;6.25;;;3.22;;
69989;SDS011;57331;52.054;5.294;2022-08-19T03:17:19;6.85;;;3.40;;
69989;SDS011;57331;52.054;5.294;2022-08-19T03:19:46;6.40;;;3.50;;
69989;SDS011;57331;52.054;5.294;2022-08-19T03:22:13;7.18;;;3.55;;
69989;SDS011;57331;52.054;5.294;2022-08-19T03:24:40;7.40;;;3.85;;
69989;SDS011;57331;52.054;5.294;2022-08-19T03:27:07;6.18;;;3.50;;
69989;SDS011;57331;52.054;5.294;2022-08-19T03:29:33;6.53;;;3.50;;
69989;SDS011;57331;52.054;5.294;2022-08-19T03:32:09;6.95;;;3.70;;
69989;SDS011;57331;52.054;5.294;2022-08-19T03:34:56;7.43;;;4.03;;
69989;SDS011;57331;52.054;5.294;2022-08-19T03:37:24;7.05;;;3.67;;
69989;SDS011;57331;52.054;5.294;2022-08-19T03:39:52;8.40;;;4.32;;
69989;SDS011;57331;52.054;5.294;2022-08-19T03:42:18;7.88;;;4.25;;
69989;SDS011;57331;52.054;5.294;2022-08-19T03:45:06;8.65;;;4.22;;
69989;SDS011;57331;52.054;5.294;2022-08-19T03:47:33;9.05;;;4.30;;
69989;SDS011;57331;52.054;5.294;2022-08-19T03:50:00;9.02;;;4.18;;
69989;SDS011;57331;52.054;5.294;2022-08-19T03:52:27;6.82;;;3.90;;
69989;SDS011;57331;52.054;5.294;2022-08-19T03:54:54;8.05;;;4.13;;
69989;SDS011;57331;52.054;5.294;2022-08-19T03:57:21;7.47;;;4.03;;
69989;SDS011;57331;52.054;5.294;2022-08-19T03:59:57;13.50;;;4.03;;
69989;SDS011;57331;52.054;5.294;2022-08-19T04:02:38;7.22;;;3.92;;
69989;SDS011;57331;52.054;5.294;2022-08-19T04:05:05;9.30;;;4.28;;
69989;SDS011;57331;52.054;5.294;2022-08-19T04:07:34;10.85;;;4.35;;
69989;SDS011;57331;52.054;5.294;2022-08-19T04:10:02;8.48;;;4.95;;
69989;SDS011;57331;52.054;5.294;2022-08-19T04:12:29;11.02;;;4.90;;
69989;SDS011;57331;52.054;5.294;2022-08-19T04:14:57;9.55;;;5.10;;
69989;SDS011;57331;52.054;5.294;2022-08-19T04:17:24;11.05;;;5.20;;
69989;SDS011;57331;52.054;5.294;2022-08-19T04:19:51;8.82;;;5.05;;
69989;SDS011;57331;52.054;5.294;2022-08-19T04:22:19;9.82;;;5.00;;
69989;SDS011;57331;52.054;5.294;2022-08-19T04:24:45;10.23;;;5.50;;
69989;SDS011;57331;52.054;5.294;2022-08-19T04:27:12;7.85;;;4.40;;
69989;SDS011;57331;52.054;5.294;2022-08-19T04:29:39;8.07;;;4.40;;
69989;SDS011;57331;52.054;5.294;2022-08-19T04:32:10;9.70;;;4.93;;
69989;SDS011;57331;52.054;5.294;2022-08-19T04:34:36;9.75;;;4.85;;
69989;SDS011;57331;52.054;5.294;2022-08-19T04:37:24;11.73;;;4.22;;
69989;SDS011;57331;52.054;5.294;2022-08-19T04:39:57;12.45;;;4.90;;
69989;SDS011;57331;52.054;5.294;2022-08-19T04:42:42;8.05;;;4.45;;
69989;SDS011;57331;52.054;5.294;2022-08-19T04:45:11;11.13;;;4.97;;
69989;SDS011;57331;52.054;5.294;2022-08-19T04:47:40;9.55;;;5.05;;
69989;SDS011;57331;52.054;5.294;2022-08-19T04:50:23;10.90;;;5.05;;
69989;SDS011;57331;52.054;5.294;2022-08-19T04:52:50;9.70;;;4.78;;
69989;SDS011;57331;52.054;5.294;2022-08-19T04:55:18;10.65;;;5.78;;
69989;SDS011;57331;52.054;5.294;2022-08-19T04:57:46;11.75;;;5.75;;
69989;SDS011;57331;52.054;5.294;2022-08-19T05:00:12;10.23;;;5.40;;
69989;SDS011;57331;52.054;5.294;2022-08-19T05:02:39;11.55;;;5.93;;
69989;SDS011;57331;52.054;5.294;2022-08-19T05:05:07;16.90;;;5.85;;
69989;SDS011;57331;52.054;5.294;2022-08-19T05:07:34;10.90;;;5.47;;
69989;SDS011;57331;52.054;5.294;2022-08-19T05:10:02;11.77;;;5.68;;
69989;SDS011;57331;52.054;5.294;2022-08-19T05:12:31;12.50;;;6.78;;
69989;SDS011;57331;52.054;5.294;2022-08-19T05:14:58;12.45;;;5.60;;
69989;SDS011;57331;52.054;5.294;2022-08-19T05:17:26;12.98;;;5.85;;
69989;SDS011;57331;52.054;5.294;2022-08-19T05:20:00;11.75;;;6.13;;
69989;SDS011;57331;52.054;5.294;2022-08-19T05:22:46;11.60;;;5.93;;
69989;SDS011;57331;52.054;5.294;2022-08-19T05:25:14;9.57;;;5.20;;
69989;SDS011;57331;52.054;5.294;2022-08-19T05:27:45;13.18;;;6.35;;
69989;SDS011;57331;52.054;5.294;2022-08-19T05:30:13;11.63;;;6.20;;
69989;SDS011;57331;52.054;5.294;2022-08-19T05:32:41;10.55;;;5.90;;
69989;SDS011;57331;52.054;5.294;2022-08-19T05:35:09;11.88;;;6.20;;
69989;SDS011;57331;52.054;5.294;2022-08-19T05:37:36;12.88;;;6.65;;
69989;SDS011;57331;52.054;5.294;2022-08-19T05:40:06;13.20;;;6.68;;
69989;SDS011;57331;52.054;5.294;2022-08-19T05:42:34;15.23;;;7.03;;
69989;SDS011;57331;52.054;5.294;2022-08-19T05:45:01;12.32;;;6.72;;
69989;SDS011;57331;52.054;5.294;2022-08-19T05:47:28;13.65;;;6.55;;
69989;SDS011;57331;52.054;5.294;2022-08-19T05:49:55;16.50;;;8.23;;
69989;SDS011;57331;52.054;5.294;2022-08-19T05:52:22;19.10;;;9.23;;
69989;SDS011;57331;52.054;5.294;2022-08-19T05:54:51;22.67;;;10.85;;
69989;SDS011;57331;52.054;5.294;2022-08-19T05:57:21;24.08;;;10.60;;
69989;SDS011;57331;52.054;5.294;2022-08-19T05:59:48;21.48;;;10.20;;
69989;SDS011;57331;52.054;5.294;2022-08-19T06:02:24;25.80;;;10.80;;
69989;SDS011;57331;52.054;5.294;2022-08-19T06:04:57;23.98;;;12.25;;
69989;SDS011;57331;52.054;5.294;2022-08-19T06:07:24;19.85;;;10.63;;
69989;SDS011;57331;52.054;5.294;2022-08-19T06:09:51;26.85;;;12.57;;
69989;SDS011;57331;52.054;5.294;2022-08-19T06:12:29;30.02;;;14.32;;
69989;SDS011;57331;52.054;5.294;2022-08-19T06:15:02;33.67;;;15.50;;
69989;SDS011;57331;52.054;5.294;2022-08-19T06:17:31;35.13;;;15.57;;
69989;SDS011;57331;52.054;5.294;2022-08-19T06:20:02;34.08;;;16.00;;
69989;SDS011;57331;52.054;5.294;2022-08-19T06:22:30;38.42;;;18.48;;
69989;SDS011;57331;52.054;5.294;2022-08-19T06:24:56;41.30;;;17.42;;
69989;SDS011;57331;52.054;5.294;2022-08-19T06:27:23;38.03;;;17.55;;
69989;SDS011;57331;52.054;5.294;2022-08-19T06:29:50;39.30;;;17.92;;
69989;SDS011;57331;52.054;5.294;2022-08-19T06:32:18;42.28;;;19.48;;
69989;SDS011;57331;52.054;5.294;2022-08-19T06:34:45;40.10;;;17.63;;
69989;SDS011;57331;52.054;5.294;2022-08-19T06:37:12;38.95;;;19.13;;
69989;SDS011;57331;52.054;5.294;2022-08-19T06:39:40;41.75;;;19.13;;
69989;SDS011;57331;52.054;5.294;2022-08-19T06:42:10;43.60;;;20.15;;
69989;SDS011;57331;52.054;5.294;2022-08-19T06:44:40;52.47;;;21.27;;
69989;SDS011;57331;52.054;5.294;2022-08-19T06:47:14;60.92;;;21.85;;
69989;SDS011;57331;52.054;5.294;2022-08-19T06:49:54;52.90;;;22.33;;
69989;SDS011;57331;52.054;5.294;2022-08-19T06:52:29;59.35;;;24.35;;
69989;SDS011;57331;52.054;5.294;2022-08-19T06:54:59;58.75;;;25.25;;
69989;SDS011;57331;52.054;5.294;2022-08-19T06:57:31;59.20;;;23.95;;
69989;SDS011;57331;52.054;5.294;2022-08-19T06:59:59;67.18;;;26.83;;
69989;SDS011;57331;52.054;5.294;2022-08-19T07:02:26;65.10;;;27.20;;
69989;SDS011;57331;52.054;5.294;2022-08-19T07:04:53;65.30;;;27.15;;
69989;SDS011;57331;52.054;5.294;2022-08-19T07:07:24;72.18;;;26.90;;
69989;SDS011;57331;52.054;5.294;2022-08-19T07:09:51;64.38;;;27.35;;
69989;SDS011;57331;52.054;5.294;2022-08-19T07:12:26;65.85;;;27.40;;
69989;SDS011;57331;52.054;5.294;2022-08-19T07:14:56;70.05;;;27.55;;
69989;SDS011;57331;52.054;5.294;2022-08-19T07:17:24;52.85;;;24.13;;
69989;SDS011;57331;52.054;5.294;2022-08-19T07:19:51;48.55;;;22.50;;
69989;SDS011;57331;52.054;5.294;2022-08-19T07:22:20;56.97;;;22.20;;
69989;SDS011;57331;52.054;5.294;2022-08-19T07:24:50;56.60;;;22.25;;
69989;SDS011;57331;52.054;5.294;2022-08-19T07:27:18;44.13;;;21.87;;
69989;SDS011;57331;52.054;5.294;2022-08-19T07:29:50;51.25;;;22.13;;
69989;SDS011;57331;52.054;5.294;2022-08-19T07:32:23;49.90;;;22.30;;
69989;SDS011;57331;52.054;5.294;2022-08-19T07:34:52;50.28;;;22.30;;
69989;SDS011;57331;52.054;5.294;2022-08-19T07:37:19;49.92;;;22.52;;
69989;SDS011;57331;52.054;5.294;2022-08-19T07:39:46;44.07;;;20.17;;
69989;SDS011;57331;52.054;5.294;2022-08-19T07:42:14;42.58;;;20.00;;
69989;SDS011;57331;52.054;5.294;2022-08-19T07:44:41;40.67;;;18.08;;
69989;SDS011;57331;52.054;5.294;2022-08-19T07:47:16;49.88;;;20.50;;
69989;SDS011;57331;52.054;5.294;2022-08-19T07:50:03;43.13;;;19.00;;
69989;SDS011;57331;52.054;5.294;2022-08-19T07:52:33;51.13;;;19.97;;
69989;SDS011;57331;52.054;5.294;2022-08-19T07:55:03;41.65;;;19.45;;
69989;SDS011;57331;52.054;5.294;2022-08-19T07:57:30;44.22;;;19.30;;
69989;SDS011;57331;52.054;5.294;2022-08-19T07:59:58;42.85;;;20.17;;
69989;SDS011;57331;52.054;5.294;2022-08-19T08:02:25;41.05;;;18.02;;
69989;SDS011;57331;52.054;5.294;2022-08-19T08:04:52;43.57;;;18.77;;
69989;SDS011;57331;52.054;5.294;2022-08-19T08:07:38;39.75;;;17.65;;
69989;SDS011;57331;52.054;5.294;2022-08-19T08:10:24;36.78;;;16.58;;
69989;SDS011;57331;52.054;5.294;2022-08-19T08:12:51;39.85;;;19.77;;
69989;SDS011;57331;52.054;5.294;2022-08-19T08:15:36;33.50;;;16.85;;
69989;SDS011;57331;52.054;5.294;2022-08-19T08:18:09;32.70;;;16.87;;
69989;SDS011;57331;52.054;5.294;2022-08-19T08:20:36;35.90;;;17.00;;
69989;SDS011;57331;52.054;5.294;2022-08-19T08:23:04;34.67;;;17.73;;
69989;SDS011;57331;52.054;5.294;2022-08-19T08:25:55;36.53;;;16.80;;
69989;SDS011;57331;52.054;5.294;2022-08-19T08:28:23;33.47;;;17.05;;
69989;SDS011;57331;52.054;5.294;2022-08-19T08:30:55;34.80;;;16.43;;
69989;SDS011;57331;52.054;5.294;2022-08-19T08:33:23;32.38;;;16.58;;
69989;SDS011;57331;52.054;5.294;2022-08-19T08:36:01;35.70;;;16.65;;
69989;SDS011;57331;52.054;5.294;2022-08-19T08:38:31;31.83;;;15.95;;
69989;SDS011;57331;52.054;5.294;2022-08-19T08:41:08;35.50;;;15.45;;
69989;SDS011;57331;52.054;5.294;2022-08-19T08:43:54;33.73;;;15.97;;
69989;SDS011;57331;52.054;5.294;2022-08-19T08:51:58;31.23;;;14.90;;
69989;SDS011;57331;52.054;5.294;2022-08-19T08:54:30;26.25;;;13.85;;
69989;SDS011;57331;52.054;5.294;2022-08-19T08:57:10;27.90;;;14.87;;
69989;SDS011;57331;52.054;5.294;2022-08-19T08:59:43;33.13;;;16.25;;
69989;SDS011;57331;52.054;5.294;2022-08-19T09:02:17;30.15;;;14.27;;
69989;SDS011;57331;52.054;5.294;2022-08-19T09:04:44;27.13;;;13.57;;
69989;SDS011;57331;52.054;5.294;2022-08-19T09:10:19;27.13;;;13.80;;
69989;SDS011;57331;52.054;5.294;2022-08-19T09:12:57;23.98;;;13.07;;
69989;SDS011;57331;52.054;5.294;2022-08-19T09:15:50;22.70;;;12.88;;
69989;SDS011;57331;52.054;5.294;2022-08-19T09:18:49;24.83;;;12.40;;
69989;SDS011;57331;52.054;5.294;2022-08-19T09:21:20;21.98;;;12.30;;
69989;SDS011;57331;52.054;5.294;2022-08-19T09:23:55;22.83;;;13.17;;
69989;SDS011;57331;52.054;5.294;2022-08-19T09:26:25;30.13;;;13.65;;
69989;SDS011;57331;52.054;5.294;2022-08-19T09:29:12;24.58;;;13.75;;
69989;SDS011;57331;52.054;5.294;2022-08-19T09:31:39;29.20;;;14.30;;
69989;SDS011;57331;52.054;5.294;2022-08-19T09:34:07;27.55;;;14.13;;
69989;SDS011;57331;52.054;5.294;2022-08-19T09:36:47;31.63;;;14.43;;
69989;SDS011;57331;52.054;5.294;2022-08-19T09:39:18;29.17;;;14.70;;
69989;SDS011;57331;52.054;5.294;2022-08-19T09:41:46;25.05;;;13.93;;
69989;SDS011;57331;52.054;5.294;2022-08-19T09:44:14;25.50;;;13.40;;
69989;SDS011;57331;52.054;5.294;2022-08-19T09:46:41;28.20;;;14.90;;
69989;SDS011;57331;52.054;5.294;2022-08-19T09:49:08;30.80;;;13.37;;
69989;SDS011;57331;52.054;5.294;2022-08-19T09:51:35;30.02;;;15.60;;
69989;SDS011;57331;52.054;5.294;2022-08-19T09:54:03;23.73;;;13.88;;
69989;SDS011;57331;52.054;5.294;2022-08-19T09:56:31;25.45;;;15.13;;
69989;SDS011;57331;52.054;5.294;2022-08-19T09:58:59;25.50;;;14.40;;
69989;SDS011;57331;52.054;5.294;2022-08-19T10:01:28;22.73;;;13.67;;
69989;SDS011;57331;52.054;5.294;2022-08-19T10:03:56;28.25;;;14.70;;
69989;SDS011;57331;52.054;5.294;2022-08-19T10:06:26;29.10;;;15.43;;
69989;SDS011;57331;52.054;5.294;2022-08-19T10:09:12;34.75;;;17.65;;
69989;SDS011;57331;52.054;5.294;2022-08-19T10:11:40;29.38;;;16.65;;
69989;SDS011;57331;52.054;5.294;2022-08-19T10:14:19;32.57;;;17.50;;
69989;SDS011;57331;52.054;5.294;2022-08-19T10:16:48;31.35;;;17.40;;
69989;SDS011;57331;52.054;5.294;2022-08-19T10:19:18;32.08;;;16.80;;
69989;SDS011;57331;52.054;5.294;2022-08-19T10:21:51;35.70;;;19.15;;
69989;SDS011;57331;52.054;5.294;2022-08-19T10:24:18;32.28;;;18.73;;
69989;SDS011;57331;52.054;5.294;2022-08-19T10:26:46;41.63;;;20.20;;
69989;SDS011;57331;52.054;5.294;2022-08-19T10:29:22;40.88;;;20.05;;
69989;SDS011;57331;52.054;5.294;2022-08-19T10:31:58;41.22;;;21.35;;
69989;SDS011;57331;52.054;5.294;2022-08-19T10:34:38;38.08;;;19.77;;
69989;SDS011;57331;52.054;5.294;2022-08-19T10:37:15;38.65;;;19.77;;
69989;SDS011;57331;52.054;5.294;2022-08-19T10:39:56;39.43;;;18.97;;
69989;SDS011;57331;52.054;5.294;2022-08-19T10:42:23;37.42;;;20.10;;
69989;SDS011;57331;52.054;5.294;2022-08-19T10:44:51;37.88;;;20.15;;
69989;SDS011;57331;52.054;5.294;2022-08-19T10:47:17;39.03;;;21.13;;
69989;SDS011;57331;52.054;5.294;2022-08-19T10:49:51;37.33;;;21.17;;
69989;SDS011;57331;52.054;5.294;2022-08-19T10:52:39;38.33;;;19.27;;
69989;SDS011;57331;52.054;5.294;2022-08-19T10:55:17;40.53;;;19.88;;
69989;SDS011;57331;52.054;5.294;2022-08-19T10:58:09;35.17;;;19.33;;
69989;SDS011;57331;52.054;5.294;2022-08-19T11:00:40;38.20;;;20.90;;
69989;SDS011;57331;52.054;5.294;2022-08-19T11:03:09;41.85;;;20.30;;
69989;SDS011;57331;52.054;5.294;2022-08-19T11:05:36;36.73;;;19.00;;
69989;SDS011;57331;52.054;5.294;2022-08-19T11:08:06;36.63;;;18.08;;
69989;SDS011;57331;52.054;5.294;2022-08-19T11:10:50;39.83;;;19.83;;
69989;SDS011;57331;52.054;5.294;2022-08-19T11:13:20;42.10;;;21.52;;
69989;SDS011;57331;52.054;5.294;2022-08-19T11:15:47;40.08;;;20.33;;
69989;SDS011;57331;52.054;5.294;2022-08-19T11:18:49;39.77;;;21.83;;
69989;SDS011;57331;52.054;5.294;2022-08-19T11:21:22;39.20;;;20.52;;
69989;SDS011;57331;52.054;5.294;2022-08-19T11:23:55;40.20;;;20.30;;
69989;SDS011;57331;52.054;5.294;2022-08-19T11:26:24;32.25;;;19.90;;
69989;SDS011;57331;52.054;5.294;2022-08-19T11:28:52;42.17;;;19.77;;
69989;SDS011;57331;52.054;5.294;2022-08-19T11:31:24;34.20;;;18.53;;
69989;SDS011;57331;52.054;5.294;2022-08-19T11:33:57;34.13;;;19.67;;
69989;SDS011;57331;52.054;5.294;2022-08-19T11:36:26;34.08;;;20.23;;
69989;SDS011;57331;52.054;5.294;2022-08-19T11:38:53;30.77;;;19.48;;
69989;SDS011;57331;52.054;5.294;2022-08-19T11:41:21;34.50;;;19.70;;
69989;SDS011;57331;52.054;5.294;2022-08-19T11:43:50;39.87;;;19.00;;
69989;SDS011;57331;52.054;5.294;2022-08-19T11:46:19;30.50;;;17.88;;
69989;SDS011;57331;52.054;5.294;2022-08-19T11:48:45;30.17;;;18.27;;
69989;SDS011;57331;52.054;5.294;2022-08-19T11:51:14;33.28;;;19.23;;
69989;SDS011;57331;52.054;5.294;2022-08-19T11:53:43;32.47;;;18.30;;
69989;SDS011;57331;52.054;5.294;2022-08-19T11:56:11;32.73;;;19.17;;
69989;SDS011;57331;52.054;5.294;2022-08-19T11:58:39;33.10;;;18.13;;
69989;SDS011;57331;52.054;5.294;2022-08-19T12:01:08;35.35;;;19.27;;
69989;SDS011;57331;52.054;5.294;2022-08-19T12:03:43;29.50;;;18.20;;
69989;SDS011;57331;52.054;5.294;2022-08-19T12:06:14;27.13;;;16.40;;
69989;SDS011;57331;52.054;5.294;2022-08-19T12:08:43;29.63;;;16.67;;
69989;SDS011;57331;52.054;5.294;2022-08-19T12:11:11;26.55;;;17.55;;
69989;SDS011;57331;52.054;5.294;2022-08-19T12:13:39;23.23;;;15.40;;
69989;SDS011;57331;52.054;5.294;2022-08-19T12:16:11;24.23;;;14.65;;
69989;SDS011;57331;52.054;5.294;2022-08-19T12:18:40;26.98;;;16.25;;
69989;SDS011;57331;52.054;5.294;2022-08-19T12:21:10;22.47;;;14.37;;
69989;SDS011;57331;52.054;5.294;2022-08-19T12:23:38;21.58;;;13.18;;
69989;SDS011;57331;52.054;5.294;2022-08-19T12:26:05;23.02;;;13.73;;
69989;SDS011;57331;52.054;5.294;2022-08-19T12:28:32;25.85;;;15.30;;
69989;SDS011;57331;52.054;5.294;2022-08-19T12:30:59;20.75;;;13.88;;
69989;SDS011;57331;52.054;5.294;2022-08-19T12:33:26;24.47;;;14.53;;
69989;SDS011;57331;52.054;5.294;2022-08-19T12:35:54;24.25;;;14.10;;
69989;SDS011;57331;52.054;5.294;2022-08-19T12:38:27;22.40;;;13.65;;
69989;SDS011;57331;52.054;5.294;2022-08-19T12:40:55;20.50;;;12.02;;
69989;SDS011;57331;52.054;5.294;2022-08-19T12:43:25;19.15;;;10.07;;
69989;SDS011;57331;52.054;5.294;2022-08-19T12:45:53;17.27;;;9.90;;
69989;SDS011;57331;52.054;5.294;2022-08-19T12:48:20;15.48;;;9.52;;
69989;SDS011;57331;52.054;5.294;2022-08-19T12:51:00;18.65;;;9.45;;
69989;SDS011;57331;52.054;5.294;2022-08-19T12:53:32;18.48;;;8.93;;
69989;SDS011;57331;52.054;5.294;2022-08-19T12:56:04;13.50;;;7.57;;
69989;SDS011;57331;52.054;5.294;2022-08-19T12:58:35;16.40;;;8.67;;
69989;SDS011;57331;52.054;5.294;2022-08-19T13:01:09;11.63;;;7.20;;
69989;SDS011;57331;52.054;5.294;2022-08-19T13:03:42;19.88;;;7.60;;
69989;SDS011;57331;52.054;5.294;2022-08-19T13:06:12;15.88;;;7.95;;
69989;SDS011;57331;52.054;5.294;2022-08-19T13:08:44;14.32;;;8.13;;
69989;SDS011;57331;52.054;5.294;2022-08-19T13:11:12;18.47;;;9.23;;
69989;SDS011;57331;52.054;5.294;2022-08-19T13:13:44;16.48;;;8.85;;
69989;SDS011;57331;52.054;5.294;2022-08-19T13:16:13;19.52;;;9.70;;
69989;SDS011;57331;52.054;5.294;2022-08-19T13:18:41;17.63;;;10.13;;
69989;SDS011;57331;52.054;5.294;2022-08-19T13:21:10;19.17;;;9.50;;
69989;SDS011;57331;52.054;5.294;2022-08-19T13:23:39;17.90;;;9.13;;
69989;SDS011;57331;52.054;5.294;2022-08-19T13:26:08;18.70;;;10.68;;
69989;SDS011;57331;52.054;5.294;2022-08-19T13:28:37;17.40;;;10.15;;
69989;SDS011;57331;52.054;5.294;2022-08-19T13:31:25;21.15;;;9.93;;
69989;SDS011;57331;52.054;5.294;2022-08-19T13:34:12;16.70;;;8.75;;
69989;SDS011;57331;52.054;5.294;2022-08-19T13:36:40;14.57;;;8.13;;
69989;SDS011;57331;52.054;5.294;2022-08-19T13:39:07;17.98;;;8.15;;
69989;SDS011;57331;52.054;5.294;2022-08-19T13:41:35;14.48;;;8.63;;
69989;SDS011;57331;52.054;5.294;2022-08-19T13:44:03;17.60;;;7.63;;
69989;SDS011;57331;52.054;5.294;2022-08-19T13:46:32;12.10;;;6.95;;
69989;SDS011;57331;52.054;5.294;2022-08-19T13:48:59;13.33;;;7.47;;
69989;SDS011;57331;52.054;5.294;2022-08-19T13:51:26;14.60;;;7.00;;
69989;SDS011;57331;52.054;5.294;2022-08-19T13:53:53;11.60;;;6.75;;
69989;SDS011;57331;52.054;5.294;2022-08-19T13:56:21;12.30;;;6.28;;
69989;SDS011;57331;52.054;5.294;2022-08-19T13:58:51;9.98;;;6.40;;
69989;SDS011;57331;52.054;5.294;2022-08-19T14:01:20;12.37;;;6.67;;
69989;SDS011;57331;52.054;5.294;2022-08-19T14:03:50;13.07;;;6.85;;
69989;SDS011;57331;52.054;5.294;2022-08-19T14:06:17;14.00;;;7.07;;
69989;SDS011;57331;52.054;5.294;2022-08-19T14:08:44;14.07;;;7.70;;
69989;SDS011;57331;52.054;5.294;2022-08-19T14:11:13;12.05;;;6.68;;
69989;SDS011;57331;52.054;5.294;2022-08-19T14:13:40;11.17;;;6.50;;
69989;SDS011;57331;52.054;5.294;2022-08-19T14:16:08;12.27;;;6.55;;
69989;SDS011;57331;52.054;5.294;2022-08-19T14:18:37;11.00;;;6.45;;
69989;SDS011;57331;52.054;5.294;2022-08-19T14:21:04;10.38;;;6.03;;
69989;SDS011;57331;52.054;5.294;2022-08-19T14:23:32;9.18;;;6.30;;
69989;SDS011;57331;52.054;5.294;2022-08-19T14:26:11;11.17;;;6.37;;
69989;SDS011;57331;52.054;5.294;2022-08-19T14:28:41;8.75;;;5.28;;
69989;SDS011;57331;52.054;5.294;2022-08-19T14:31:09;10.57;;;5.35;;
69989;SDS011;57331;52.054;5.294;2022-08-19T14:33:45;10.63;;;5.40;;
69989;SDS011;57331;52.054;5.294;2022-08-19T14:36:13;8.70;;;5.05;;
69989;SDS011;57331;52.054;5.294;2022-08-19T14:38:40;9.77;;;5.13;;
69989;SDS011;57331;52.054;5.294;2022-08-19T14:41:15;8.27;;;5.07;;
69989;SDS011;57331;52.054;5.294;2022-08-19T14:43:44;8.80;;;4.90;;
69989;SDS011;57331;52.054;5.294;2022-08-19T14:46:14;7.18;;;4.68;;
69989;SDS011;57331;52.054;5.294;2022-08-19T14:48:43;9.55;;;5.00;;
69989;SDS011;57331;52.054;5.294;2022-08-19T14:51:10;7.40;;;4.80;;
69989;SDS011;57331;52.054;5.294;2022-08-19T14:53:37;7.93;;;5.28;;
69989;SDS011;57331;52.054;5.294;2022-08-19T14:56:08;9.00;;;5.03;;
69989;SDS011;57331;52.054;5.294;2022-08-19T14:58:37;7.47;;;4.53;;
69989;SDS011;57331;52.054;5.294;2022-08-19T15:01:06;8.35;;;5.18;;
69989;SDS011;57331;52.054;5.294;2022-08-19T15:03:33;9.23;;;5.27;;
69989;SDS011;57331;52.054;5.294;2022-08-19T15:06:01;8.93;;;5.10;;